sensor_id;sensor_type;location;lat;lon;timestamp;pressure;altitude;pressure_sealevel;temperature;humidity
1472;BME280;963;42.644;23.336;2023-04-08T00:02:13;94242.47;;;7.31;58.42
1472;BME280;963;42.644;23.336;2023-04-08T00:04:38;94238.41;;;7.33;58.39
1472;BME280;963;42.644;23.336;2023-04-08T00:07:04;94242.66;;;7.38;58.55
1472;BME280;963;42.644;23.336;2023-04-08T00:09:30;94245.69;;;7.40;58.57
1472;BME280;963;42.644;23.336;2023-04-08T00:11:55;94232.84;;;7.35;58.22
1472;BME280;963;42.644;23.336;2023-04-08T00:14:21;94245.03;;;7.43;58.66
1472;BME280;963;42.644;23.336;2023-04-08T00:16:46;94246.44;;;7.40;59.32
1472;BME280;963;42.644;23.336;2023-04-08T00:19:12;94260.19;;;7.37;59.09
1472;BME280;963;42.644;23.336;2023-04-08T00:21:37;94238.09;;;7.35;59.59
1472;BME280;963;42.644;23.336;2023-04-08T00:24:03;94221.44;;;7.27;59.39
1472;BME280;963;42.644;23.336;2023-04-08T00:26:28;94241.38;;;7.32;58.97
1472;BME280;963;42.644;23.336;2023-04-08T00:28:53;94252.91;;;7.31;58.97
1472;BME280;963;42.644;23.336;2023-04-08T00:31:19;94240.94;;;7.30;59.37
1472;BME280;963;42.644;23.336;2023-04-08T00:33:44;94248.34;;;7.28;59.53
1472;BME280;963;42.644;23.336;2023-04-08T00:36:10;94246.41;;;7.25;59.24
1472;BME280;963;42.644;23.336;2023-04-08T00:38:35;94233.03;;;7.14;59.00
1472;BME280;963;42.644;23.336;2023-04-08T00:41:01;94246.22;;;7.17;59.64
1472;BME280;963;42.644;23.336;2023-04-08T00:43:26;94250.44;;;7.22;59.31
1472;BME280;963;42.644;23.336;2023-04-08T00:45:52;94257.97;;;7.24;59.72
1472;BME280;963;42.644;23.336;2023-04-08T00:48:17;94253.41;;;7.20;59.35
1472;BME280;963;42.644;23.336;2023-04-08T00:50:43;94253.44;;;6.96;59.99
1472;BME280;963;42.644;23.336;2023-04-08T00:53:08;94232.63;;;7.00;60.17
1472;BME280;963;42.644;23.336;2023-04-08T00:55:34;94257.31;;;6.74;61.38
1472;BME280;963;42.644;23.336;2023-04-08T00:58:00;94248.69;;;6.62;61.99
1472;BME280;963;42.644;23.336;2023-04-08T01:00:28;94256.66;;;6.77;61.37
1472;BME280;963;42.644;23.336;2023-04-08T01:08:02;94250.22;;;6.26;62.94
1472;BME280;963;42.644;23.336;2023-04-08T01:10:32;94250.44;;;6.21;63.13
1472;BME280;963;42.644;23.336;2023-04-08T01:13:03;94259.56;;;5.37;65.51
1472;BME280;963;42.644;23.336;2023-04-08T01:15:30;94254.50;;;5.85;63.83
1472;BME280;963;42.644;23.336;2023-04-08T01:17:58;94271.34;;;6.21;62.88
1472;BME280;963;42.644;23.336;2023-04-08T01:20:26;94265.69;;;6.19;62.59
1472;BME280;963;42.644;23.336;2023-04-08T01:25:52;94264.16;;;6.18;62.39
1472;BME280;963;42.644;23.336;2023-04-08T01:28:18;94261.88;;;6.28;61.99
1472;BME280;963;42.644;23.336;2023-04-08T01:30:45;94257.66;;;6.36;61.92
1472;BME280;963;42.644;23.336;2023-04-08T01:33:13;94253.50;;;6.23;62.03
1472;BME280;963;42.644;23.336;2023-04-08T01:35:39;94250.75;;;6.32;61.95
1472;BME280;963;42.644;23.336;2023-04-08T01:38:06;94259.38;;;6.44;60.97
1472;BME280;963;42.644;23.336;2023-04-08T01:40:34;94248.06;;;6.52;61.12
1472;BME280;963;42.644;23.336;2023-04-08T01:43:00;94256.00;;;6.44;61.40
1472;BME280;963;42.644;23.336;2023-04-08T01:45:27;94252.63;;;6.43;61.70
1472;BME280;963;42.644;23.336;2023-04-08T01:47:54;94254.16;;;6.44;61.79
1472;BME280;963;42.644;23.336;2023-04-08T01:50:21;94252.84;;;6.50;61.62
1472;BME280;963;42.644;23.336;2023-04-08T01:52:48;94243.50;;;6.49;61.55
1472;BME280;963;42.644;23.336;2023-04-08T01:55:15;94268.94;;;6.65;61.82
1472;BME280;963;42.644;23.336;2023-04-08T01:57:43;94252.94;;;6.78;61.41
1472;BME280;963;42.644;23.336;2023-04-08T02:00:12;94259.56;;;6.88;61.50
1472;BME280;963;42.644;23.336;2023-04-08T02:02:39;94258.72;;;6.84;61.28
1472;BME280;963;42.644;23.336;2023-04-08T02:05:07;94282.34;;;6.87;61.22
1472;BME280;963;42.644;23.336;2023-04-08T02:07:32;94270.56;;;6.94;61.28
1472;BME280;963;42.644;23.336;2023-04-08T02:09:58;94263.47;;;6.94;61.16
1472;BME280;963;42.644;23.336;2023-04-08T02:12:24;94270.75;;;7.01;61.28
1472;BME280;963;42.644;23.336;2023-04-08T02:14:52;94266.28;;;7.01;60.77
1472;BME280;963;42.644;23.336;2023-04-08T02:17:22;94269.81;;;6.81;60.81
1472;BME280;963;42.644;23.336;2023-04-08T02:19:59;94276.75;;;7.01;60.72
1472;BME280;963;42.644;23.336;2023-04-08T02:22:43;94272.19;;;6.98;60.18
1472;BME280;963;42.644;23.336;2023-04-08T02:25:14;94271.88;;;6.87;59.35
1472;BME280;963;42.644;23.336;2023-04-08T02:27:41;94298.13;;;6.91;59.62
1472;BME280;963;42.644;23.336;2023-04-08T02:30:09;94271.44;;;6.85;59.34
1472;BME280;963;42.644;23.336;2023-04-08T02:32:36;94294.31;;;6.88;58.96
1472;BME280;963;42.644;23.336;2023-04-08T02:35:03;94259.13;;;6.86;59.02
1472;BME280;963;42.644;23.336;2023-04-08T02:37:30;94265.22;;;6.90;58.20
1472;BME280;963;42.644;23.336;2023-04-08T02:39:56;94273.69;;;6.99;58.77
1472;BME280;963;42.644;23.336;2023-04-08T02:42:21;94269.91;;;6.97;58.07
1472;BME280;963;42.644;23.336;2023-04-08T02:44:47;94281.66;;;7.03;58.50
1472;BME280;963;42.644;23.336;2023-04-08T02:47:12;94278.50;;;6.97;59.04
1472;BME280;963;42.644;23.336;2023-04-08T02:49:38;94277.41;;;6.98;58.90
1472;BME280;963;42.644;23.336;2023-04-08T02:52:03;94260.47;;;6.80;58.27
1472;BME280;963;42.644;23.336;2023-04-08T02:54:29;94268.47;;;6.99;58.27
1472;BME280;963;42.644;23.336;2023-04-08T02:56:54;94259.63;;;7.04;58.52
1472;BME280;963;42.644;23.336;2023-04-08T02:59:20;94274.38;;;7.08;59.21
1472;BME280;963;42.644;23.336;2023-04-08T03:01:45;94286.53;;;7.04;59.59
1472;BME280;963;42.644;23.336;2023-04-08T03:04:11;94280.34;;;7.09;58.95
1472;BME280;963;42.644;23.336;2023-04-08T03:06:36;94284.59;;;7.13;58.52
1472;BME280;963;42.644;23.336;2023-04-08T03:09:01;94287.19;;;7.13;59.39
1472;BME280;963;42.644;23.336;2023-04-08T03:11:27;94278.59;;;7.13;59.77
1472;BME280;963;42.644;23.336;2023-04-08T03:13:52;94270.44;;;7.02;60.54
1472;BME280;963;42.644;23.336;2023-04-08T03:16:18;94274.69;;;7.07;60.52
1472;BME280;963;42.644;23.336;2023-04-08T03:18:43;94292.53;;;7.05;60.63
1472;BME280;963;42.644;23.336;2023-04-08T03:21:09;94272.09;;;6.95;61.19
1472;BME280;963;42.644;23.336;2023-04-08T03:23:34;94270.66;;;6.97;61.04
1472;BME280;963;42.644;23.336;2023-04-08T03:26:00;94268.28;;;6.92;61.00
1472;BME280;963;42.644;23.336;2023-04-08T03:28:25;94272.94;;;6.99;61.06
1472;BME280;963;42.644;23.336;2023-04-08T03:30:51;94273.28;;;6.97;60.81
1472;BME280;963;42.644;23.336;2023-04-08T03:33:16;94275.34;;;6.92;59.67
1472;BME280;963;42.644;23.336;2023-04-08T03:35:42;94280.91;;;6.90;59.83
1472;BME280;963;42.644;23.336;2023-04-08T03:38:07;94290.72;;;6.93;59.84
1472;BME280;963;42.644;23.336;2023-04-08T03:40:33;94268.72;;;6.82;59.45
1472;BME280;963;42.644;23.336;2023-04-08T03:42:58;94280.59;;;6.79;59.62
1472;BME280;963;42.644;23.336;2023-04-08T03:45:23;94280.06;;;6.86;60.05
1472;BME280;963;42.644;23.336;2023-04-08T03:47:49;94299.00;;;6.83;59.71
1472;BME280;963;42.644;23.336;2023-04-08T03:50:14;94269.19;;;6.47;61.35
1472;BME280;963;42.644;23.336;2023-04-08T03:52:40;94305.97;;;6.79;60.37
1472;BME280;963;42.644;23.336;2023-04-08T03:55:05;94284.41;;;6.82;60.66
1472;BME280;963;42.644;23.336;2023-04-08T03:57:31;94259.50;;;6.72;60.61
1472;BME280;963;42.644;23.336;2023-04-08T03:59:56;94286.69;;;6.83;60.32
1472;BME280;963;42.644;23.336;2023-04-08T04:02:22;94282.66;;;6.86;59.66
1472;BME280;963;42.644;23.336;2023-04-08T04:04:47;94298.88;;;6.67;60.44
1472;BME280;963;42.644;23.336;2023-04-08T04:07:12;94273.75;;;6.75;60.23
1472;BME280;963;42.644;23.336;2023-04-08T04:09:38;94297.41;;;5.97;62.68
1472;BME280;963;42.644;23.336;2023-04-08T04:12:03;94280.50;;;6.51;61.52
1472;BME280;963;42.644;23.336;2023-04-08T04:14:29;94282.59;;;6.70;60.53
1472;BME280;963;42.644;23.336;2023-04-08T04:16:54;94274.41;;;6.72;60.48
1472;BME280;963;42.644;23.336;2023-04-08T04:19:20;94278.31;;;6.78;60.46
1472;BME280;963;42.644;23.336;2023-04-08T04:21:45;94278.97;;;6.75;60.11
1472;BME280;963;42.644;23.336;2023-04-08T04:24:10;94298.13;;;6.91;59.89
1472;BME280;963;42.644;23.336;2023-04-08T04:26:39;94282.44;;;6.91;60.11
1472;BME280;963;42.644;23.336;2023-04-08T04:29:04;94285.91;;;6.95;60.16
1472;BME280;963;42.644;23.336;2023-04-08T04:31:30;94290.06;;;6.96;60.12
1472;BME280;963;42.644;23.336;2023-04-08T04:33:55;94287.09;;;6.98;59.49
1472;BME280;963;42.644;23.336;2023-04-08T04:36:21;94288.84;;;6.94;59.79
1472;BME280;963;42.644;23.336;2023-04-08T04:38:46;94296.38;;;6.95;60.24
1472;BME280;963;42.644;23.336;2023-04-08T04:41:13;94281.91;;;6.85;60.32
1472;BME280;963;42.644;23.336;2023-04-08T04:43:38;94293.75;;;6.95;60.52
1472;BME280;963;42.644;23.336;2023-04-08T04:46:04;94295.06;;;7.01;60.86
1472;BME280;963;42.644;23.336;2023-04-08T04:48:35;94284.50;;;6.98;60.13
1472;BME280;963;42.644;23.336;2023-04-08T04:51:01;94292.66;;;6.96;60.67
1472;BME280;963;42.644;23.336;2023-04-08T04:53:30;94290.81;;;6.97;60.79
1472;BME280;963;42.644;23.336;2023-04-08T04:55:55;94297.66;;;7.01;60.74
1472;BME280;963;42.644;23.336;2023-04-08T04:58:21;94275.94;;;6.73;60.58
1472;BME280;963;42.644;23.336;2023-04-08T05:00:46;94292.66;;;6.96;60.59
1472;BME280;963;42.644;23.336;2023-04-08T05:03:12;94307.16;;;6.94;60.57
1472;BME280;963;42.644;23.336;2023-04-08T05:05:37;94307.91;;;6.94;60.66
1472;BME280;963;42.644;23.336;2023-04-08T05:08:03;94292.03;;;6.87;60.22
1472;BME280;963;42.644;23.336;2023-04-08T05:10:29;94303.56;;;6.98;60.47
1472;BME280;963;42.644;23.336;2023-04-08T05:12:54;94302.69;;;6.94;60.86
1472;BME280;963;42.644;23.336;2023-04-08T05:15:20;94316.41;;;7.03;60.68
1472;BME280;963;42.644;23.336;2023-04-08T05:17:45;94302.91;;;7.01;60.22
1472;BME280;963;42.644;23.336;2023-04-08T05:20:11;94314.97;;;7.06;60.43
1472;BME280;963;42.644;23.336;2023-04-08T05:22:36;94314.78;;;6.99;60.52
1472;BME280;963;42.644;23.336;2023-04-08T05:25:02;94309.78;;;6.94;60.60
1472;BME280;963;42.644;23.336;2023-04-08T05:27:27;94298.66;;;6.97;60.54
1472;BME280;963;42.644;23.336;2023-04-08T05:29:52;94317.28;;;6.95;60.78
1472;BME280;963;42.644;23.336;2023-04-08T05:32:18;94312.06;;;7.07;60.41
1472;BME280;963;42.644;23.336;2023-04-08T05:34:43;94309.31;;;7.04;60.87
1472;BME280;963;42.644;23.336;2023-04-08T05:37:09;94318.91;;;7.12;60.68
1472;BME280;963;42.644;23.336;2023-04-08T05:39:34;94301.34;;;7.25;60.42
1472;BME280;963;42.644;23.336;2023-04-08T05:42:03;94304.19;;;7.19;60.04
1472;BME280;963;42.644;23.336;2023-04-08T05:44:28;94280.13;;;7.02;60.30
1472;BME280;963;42.644;23.336;2023-04-08T05:46:54;94298.13;;;6.91;61.94
1472;BME280;963;42.644;23.336;2023-04-08T05:49:20;94286.81;;;6.75;62.34
1472;BME280;963;42.644;23.336;2023-04-08T05:51:45;94293.75;;;6.95;61.27
1472;BME280;963;42.644;23.336;2023-04-08T05:54:11;94303.16;;;6.84;62.43
1472;BME280;963;42.644;23.336;2023-04-08T05:56:36;94305.03;;;7.24;60.79
1472;BME280;963;42.644;23.336;2023-04-08T05:59:02;94298.59;;;7.33;61.49
1472;BME280;963;42.644;23.336;2023-04-08T06:01:27;94300.22;;;7.38;60.52
1472;BME280;963;42.644;23.336;2023-04-08T06:03:52;94282.72;;;7.54;60.46
1472;BME280;963;42.644;23.336;2023-04-08T06:06:20;94283.50;;;7.55;60.82
1472;BME280;963;42.644;23.336;2023-04-08T06:08:45;94297.75;;;7.57;60.17
1472;BME280;963;42.644;23.336;2023-04-08T06:11:11;94287.28;;;7.57;60.47
1472;BME280;963;42.644;23.336;2023-04-08T06:13:36;94297.44;;;7.87;59.12
1472;BME280;963;42.644;23.336;2023-04-08T06:16:09;94284.94;;;7.96;59.26
1472;BME280;963;42.644;23.336;2023-04-08T06:18:35;94295.06;;;7.97;59.39
1472;BME280;963;42.644;23.336;2023-04-08T06:21:00;94293.63;;;8.00;59.15
1472;BME280;963;42.644;23.336;2023-04-08T06:23:26;94290.91;;;7.80;59.02
1472;BME280;963;42.644;23.336;2023-04-08T06:25:52;94294.72;;;7.55;59.96
1472;BME280;963;42.644;23.336;2023-04-08T06:28:18;94312.75;;;7.72;59.61
1472;BME280;963;42.644;23.336;2023-04-08T06:30:43;94289.75;;;7.94;58.90
1472;BME280;963;42.644;23.336;2023-04-08T06:33:09;94290.25;;;7.83;59.62
1472;BME280;963;42.644;23.336;2023-04-08T06:35:34;94288.91;;;8.05;59.23
1472;BME280;963;42.644;23.336;2023-04-08T06:38:02;94298.75;;;8.24;59.15
1472;BME280;963;42.644;23.336;2023-04-08T06:40:27;94298.50;;;8.29;59.04
1472;BME280;963;42.644;23.336;2023-04-08T06:42:52;94292.69;;;8.52;58.40
1472;BME280;963;42.644;23.336;2023-04-08T06:45:18;94303.53;;;8.66;58.09
1472;BME280;963;42.644;23.336;2023-04-08T06:47:43;94293.03;;;8.66;57.99
1472;BME280;963;42.644;23.336;2023-04-08T06:50:09;94303.16;;;8.52;57.83
1472;BME280;963;42.644;23.336;2023-04-08T06:52:35;94297.16;;;8.51;58.10
1472;BME280;963;42.644;23.336;2023-04-08T06:55:00;94295.06;;;8.57;57.84
1472;BME280;963;42.644;23.336;2023-04-08T06:57:26;94299.56;;;8.56;58.07
1472;BME280;963;42.644;23.336;2023-04-08T06:59:51;94293.19;;;8.73;57.99
1472;BME280;963;42.644;23.336;2023-04-08T07:02:17;94299.88;;;8.70;58.08
1472;BME280;963;42.644;23.336;2023-04-08T07:04:43;94292.78;;;8.71;58.18
1472;BME280;963;42.644;23.336;2023-04-08T07:07:08;94299.94;;;8.74;58.72
1472;BME280;963;42.644;23.336;2023-04-08T07:09:34;94293.06;;;8.85;58.22
1472;BME280;963;42.644;23.336;2023-04-08T07:12:01;94294.59;;;8.86;58.84
1472;BME280;963;42.644;23.336;2023-04-08T07:14:28;94305.69;;;8.95;58.71
1472;BME280;963;42.644;23.336;2023-04-08T07:16:54;94299.53;;;8.72;58.69
1472;BME280;963;42.644;23.336;2023-04-08T07:19:20;94305.75;;;8.99;58.01
1472;BME280;963;42.644;23.336;2023-04-08T07:21:46;94311.16;;;9.06;57.90
1472;BME280;963;42.644;23.336;2023-04-08T07:24:12;94301.22;;;9.15;57.87
1472;BME280;963;42.644;23.336;2023-04-08T07:26:37;94304.63;;;9.16;58.26
1472;BME280;963;42.644;23.336;2023-04-08T07:29:03;94303.63;;;9.04;58.17
1472;BME280;963;42.644;23.336;2023-04-08T07:31:28;94305.88;;;8.71;58.82
1472;BME280;963;42.644;23.336;2023-04-08T07:33:54;94325.72;;;9.03;58.37
1472;BME280;963;42.644;23.336;2023-04-08T07:36:20;94310.59;;;9.32;57.78
1472;BME280;963;42.644;23.336;2023-04-08T07:38:45;94329.47;;;9.22;57.74
1472;BME280;963;42.644;23.336;2023-04-08T07:41:11;94316.19;;;9.30;57.64
1472;BME280;963;42.644;23.336;2023-04-08T07:43:36;94319.81;;;9.26;57.57
1472;BME280;963;42.644;23.336;2023-04-08T07:46:04;94322.38;;;9.22;57.34
1472;BME280;963;42.644;23.336;2023-04-08T07:48:30;94320.28;;;9.47;57.12
1472;BME280;963;42.644;23.336;2023-04-08T07:50:56;94327.53;;;9.54;57.23
1472;BME280;963;42.644;23.336;2023-04-08T07:53:22;94318.91;;;9.53;57.18
1472;BME280;963;42.644;23.336;2023-04-08T07:55:49;94321.94;;;9.55;57.22
1472;BME280;963;42.644;23.336;2023-04-08T07:58:14;94325.66;;;9.54;56.67
1472;BME280;963;42.644;23.336;2023-04-08T08:00:40;94350.78;;;9.71;56.68
1472;BME280;963;42.644;23.336;2023-04-08T08:03:05;94339.97;;;9.95;56.45
1472;BME280;963;42.644;23.336;2023-04-08T08:05:30;94332.66;;;10.05;56.04
1472;BME280;963;42.644;23.336;2023-04-08T08:07:56;94337.13;;;10.23;55.34
1472;BME280;963;42.644;23.336;2023-04-08T08:10:21;94340.44;;;10.01;55.14
1472;BME280;963;42.644;23.336;2023-04-08T08:12:47;94343.34;;;10.15;55.49
1472;BME280;963;42.644;23.336;2023-04-08T08:15:12;94352.75;;;10.36;54.69
1472;BME280;963;42.644;23.336;2023-04-08T08:17:39;94326.44;;;10.36;53.88
1472;BME280;963;42.644;23.336;2023-04-08T08:20:05;94345.19;;;10.53;54.08
1472;BME280;963;42.644;23.336;2023-04-08T08:22:31;94344.66;;;10.44;54.63
1472;BME280;963;42.644;23.336;2023-04-08T08:24:57;94335.72;;;10.49;54.38
1472;BME280;963;42.644;23.336;2023-04-08T08:27:22;94353.81;;;10.54;54.16
1472;BME280;963;42.644;23.336;2023-04-08T08:29:48;94331.31;;;10.56;54.29
1472;BME280;963;42.644;23.336;2023-04-08T08:32:14;94342.41;;;10.69;53.21
1472;BME280;963;42.644;23.336;2023-04-08T08:34:39;94340.13;;;10.68;53.53
1472;BME280;963;42.644;23.336;2023-04-08T08:37:04;94354.91;;;10.76;52.45
1472;BME280;963;42.644;23.336;2023-04-08T08:39:30;94346.81;;;10.84;52.88
1472;BME280;963;42.644;23.336;2023-04-08T08:41:55;94350.41;;;10.76;52.58
1472;BME280;963;42.644;23.336;2023-04-08T08:44:21;94352.75;;;10.36;53.21
1472;BME280;963;42.644;23.336;2023-04-08T08:46:47;94346.88;;;10.42;52.28
1472;BME280;963;42.644;23.336;2023-04-08T08:49:13;94355.59;;;10.46;52.92
1472;BME280;963;42.644;23.336;2023-04-08T08:51:44;94351.00;;;10.66;52.53
1472;BME280;963;42.644;23.336;2023-04-08T08:54:10;94340.38;;;10.59;52.49
1472;BME280;963;42.644;23.336;2023-04-08T08:56:35;94349.19;;;10.24;53.52
1472;BME280;963;42.644;23.336;2023-04-08T08:59:01;94356.78;;;10.29;53.76
1472;BME280;963;42.644;23.336;2023-04-08T09:01:36;94353.56;;;10.40;54.23
1472;BME280;963;42.644;23.336;2023-04-08T09:06:31;94342.94;;;10.32;55.60
1472;BME280;963;42.644;23.336;2023-04-08T09:08:57;94354.63;;;10.16;56.72
1472;BME280;963;42.644;23.336;2023-04-08T09:11:22;94351.59;;;10.56;55.57
1472;BME280;963;42.644;23.336;2023-04-08T09:13:48;94348.63;;;10.57;56.08
1472;BME280;963;42.644;23.336;2023-04-08T09:16:15;94362.47;;;10.54;57.39
1472;BME280;963;42.644;23.336;2023-04-08T09:18:42;94351.78;;;10.89;56.99
1472;BME280;963;42.644;23.336;2023-04-08T09:21:09;94340.72;;;9.96;56.00
1472;BME280;963;42.644;23.336;2023-04-08T09:26:21;94350.34;;;9.88;58.44
1472;BME280;963;42.644;23.336;2023-04-08T09:28:58;94366.72;;;9.62;58.69
1472;BME280;963;42.644;23.336;2023-04-08T09:31:25;94330.84;;;10.28;57.23
1472;BME280;963;42.644;23.336;2023-04-08T09:33:55;94335.88;;;10.82;56.05
1472;BME280;963;42.644;23.336;2023-04-08T09:36:21;94321.91;;;10.78;54.41
1472;BME280;963;42.644;23.336;2023-04-08T09:38:47;94360.63;;;11.04;53.04
1472;BME280;963;42.644;23.336;2023-04-08T09:41:14;94322.13;;;11.19;52.84
1472;BME280;963;42.644;23.336;2023-04-08T09:43:46;94327.81;;;11.21;53.06
1472;BME280;963;42.644;23.336;2023-04-08T09:46:17;94334.56;;;10.95;54.90
1472;BME280;963;42.644;23.336;2023-04-08T09:48:49;94324.16;;;11.29;54.54
1472;BME280;963;42.644;23.336;2023-04-08T09:51:18;94309.38;;;11.51;53.52
1472;BME280;963;42.644;23.336;2023-04-08T09:53:50;94319.03;;;11.70;52.10
1472;BME280;963;42.644;23.336;2023-04-08T09:56:20;94330.06;;;11.79;52.49
1472;BME280;963;42.644;23.336;2023-04-08T09:59:02;94317.03;;;11.89;52.88
1472;BME280;963;42.644;23.336;2023-04-08T10:01:36;94317.22;;;12.07;52.02
1472;BME280;963;42.644;23.336;2023-04-08T10:04:14;94313.28;;;12.28;51.37
1472;BME280;963;42.644;23.336;2023-04-08T10:07:01;94309.28;;;12.07;51.15
1472;BME280;963;42.644;23.336;2023-04-08T10:09:28;94304.31;;;11.69;51.99
1472;BME280;963;42.644;23.336;2023-04-08T10:11:54;94304.09;;;11.51;52.06
1472;BME280;963;42.644;23.336;2023-04-08T10:14:20;94306.28;;;11.45;52.72
1472;BME280;963;42.644;23.336;2023-04-08T10:16:46;94307.59;;;11.58;53.05
1472;BME280;963;42.644;23.336;2023-04-08T10:19:38;94309.03;;;11.52;53.60
1472;BME280;963;42.644;23.336;2023-04-08T10:27:39;94299.56;;;11.18;53.87
1472;BME280;963;42.644;23.336;2023-04-08T10:32:58;94301.66;;;11.35;54.18
1472;BME280;963;42.644;23.336;2023-04-08T10:35:34;94295.75;;;11.45;54.80
1472;BME280;963;42.644;23.336;2023-04-08T10:38:00;94303.66;;;11.75;53.54
1472;BME280;963;42.644;23.336;2023-04-08T10:40:27;94293.25;;;11.86;53.39
1472;BME280;963;42.644;23.336;2023-04-08T10:42:56;94294.41;;;11.88;53.37
1472;BME280;963;42.644;23.336;2023-04-08T10:45:22;94286.50;;;11.88;53.43
1472;BME280;963;42.644;23.336;2023-04-08T10:47:47;94280.28;;;11.74;52.26
1472;BME280;963;42.644;23.336;2023-04-08T10:50:14;94294.47;;;11.92;52.42
1472;BME280;963;42.644;23.336;2023-04-08T10:52:49;94279.41;;;11.63;53.15
1472;BME280;963;42.644;23.336;2023-04-08T10:55:24;94279.88;;;11.12;53.58
1472;BME280;963;42.644;23.336;2023-04-08T10:57:50;94273.97;;;11.48;53.89
1472;BME280;963;42.644;23.336;2023-04-08T11:00:38;94267.66;;;11.86;53.73
1472;BME280;963;42.644;23.336;2023-04-08T11:03:09;94272.38;;;12.07;52.71
1472;BME280;963;42.644;23.336;2023-04-08T11:05:36;94257.34;;;12.11;52.18
1472;BME280;963;42.644;23.336;2023-04-08T11:08:02;94265.47;;;11.92;51.89
1472;BME280;963;42.644;23.336;2023-04-08T11:10:28;94253.19;;;11.73;52.48
1472;BME280;963;42.644;23.336;2023-04-08T11:12:54;94272.84;;;11.79;51.64
1472;BME280;963;42.644;23.336;2023-04-08T11:15:21;94261.44;;;12.05;51.71
1472;BME280;963;42.644;23.336;2023-04-08T11:17:47;94267.81;;;12.01;50.92
1472;BME280;963;42.644;23.336;2023-04-08T11:20:13;94254.19;;;11.95;50.88
1472;BME280;963;42.644;23.336;2023-04-08T11:22:39;94254.31;;;12.09;50.68
1472;BME280;963;42.644;23.336;2023-04-08T11:25:06;94250.38;;;12.30;50.29
1472;BME280;963;42.644;23.336;2023-04-08T11:27:34;94235.53;;;12.14;49.86
1472;BME280;963;42.644;23.336;2023-04-08T11:30:01;94250.84;;;11.98;50.70
1472;BME280;963;42.644;23.336;2023-04-08T11:32:27;94237.00;;;12.08;49.14
1472;BME280;963;42.644;23.336;2023-04-08T11:34:55;94235.53;;;12.14;49.36
1472;BME280;963;42.644;23.336;2023-04-08T11:37:24;94239.63;;;12.08;47.69
1472;BME280;963;42.644;23.336;2023-04-08T11:39:50;94225.94;;;11.92;49.31
1472;BME280;963;42.644;23.336;2023-04-08T11:42:31;94241.75;;;11.58;50.70
1472;BME280;963;42.644;23.336;2023-04-08T11:44:57;94235.59;;;11.51;50.56
1472;BME280;963;42.644;23.336;2023-04-08T11:47:34;94230.22;;;11.74;49.52
1472;BME280;963;42.644;23.336;2023-04-08T11:50:00;94222.81;;;11.49;50.38
1472;BME280;963;42.644;23.336;2023-04-08T11:52:47;94233.09;;;11.58;49.83
1472;BME280;963;42.644;23.336;2023-04-08T11:55:24;94232.69;;;11.56;50.14
1472;BME280;963;42.644;23.336;2023-04-08T11:57:51;94230.75;;;11.19;52.03
1472;BME280;963;42.644;23.336;2023-04-08T12:00:17;94210.91;;;11.63;50.97
1472;BME280;963;42.644;23.336;2023-04-08T12:02:43;94212.38;;;11.90;50.49
1472;BME280;963;42.644;23.336;2023-04-08T12:05:08;94207.94;;;11.64;49.00
1472;BME280;963;42.644;23.336;2023-04-08T12:07:35;94212.16;;;12.13;48.38
1472;BME280;963;42.644;23.336;2023-04-08T12:10:00;94208.84;;;12.19;47.86
1472;BME280;963;42.644;23.336;2023-04-08T12:12:25;94218.53;;;12.08;48.52
1472;BME280;963;42.644;23.336;2023-04-08T12:14:51;94208.75;;;12.60;48.92
1472;BME280;963;42.644;23.336;2023-04-08T12:17:17;94211.19;;;12.83;48.53
1472;BME280;963;42.644;23.336;2023-04-08T12:19:42;94196.06;;;12.76;49.71
1472;BME280;963;42.644;23.336;2023-04-08T12:22:08;94194.13;;;12.66;49.10
1472;BME280;963;42.644;23.336;2023-04-08T12:24:33;94196.44;;;12.75;49.98
1472;BME280;963;42.644;23.336;2023-04-08T12:26:59;94178.78;;;12.93;49.39
1472;BME280;963;42.644;23.336;2023-04-08T12:29:26;94190.00;;;12.69;49.61
1472;BME280;963;42.644;23.336;2023-04-08T12:31:51;94195.47;;;12.46;48.80
1472;BME280;963;42.644;23.336;2023-04-08T12:34:17;94185.75;;;12.06;50.47
1472;BME280;963;42.644;23.336;2023-04-08T12:36:43;94183.94;;;12.13;49.68
1472;BME280;963;42.644;23.336;2023-04-08T12:39:09;94186.97;;;11.41;50.58
1472;BME280;963;42.644;23.336;2023-04-08T12:41:34;94193.22;;;11.26;50.06
1472;BME280;963;42.644;23.336;2023-04-08T12:43:59;94185.94;;;11.49;50.83
1472;BME280;963;42.644;23.336;2023-04-08T12:46:25;94192.63;;;11.43;51.03
1472;BME280;963;42.644;23.336;2023-04-08T12:48:50;94196.53;;;11.19;51.87
1472;BME280;963;42.644;23.336;2023-04-08T12:51:16;94193.88;;;10.89;52.75
1472;BME280;963;42.644;23.336;2023-04-08T12:53:42;94178.59;;;10.99;51.81
1472;BME280;963;42.644;23.336;2023-04-08T12:56:07;94179.31;;;10.95;51.64
1472;BME280;963;42.644;23.336;2023-04-08T12:58:33;94184.19;;;10.67;52.67
1472;BME280;963;42.644;23.336;2023-04-08T13:00:58;94199.25;;;10.96;53.52
1472;BME280;963;42.644;23.336;2023-04-08T13:03:24;94186.19;;;11.07;53.45
1472;BME280;963;42.644;23.336;2023-04-08T13:05:50;94174.00;;;10.92;54.24
1472;BME280;963;42.644;23.336;2023-04-08T13:08:15;94201.97;;;10.77;54.95
1472;BME280;963;42.644;23.336;2023-04-08T13:10:41;94185.28;;;10.92;55.00
1472;BME280;963;42.644;23.336;2023-04-08T13:13:07;94186.91;;;11.04;55.04
1472;BME280;963;42.644;23.336;2023-04-08T13:15:33;94186.25;;;11.11;54.63
1472;BME280;963;42.644;23.336;2023-04-08T13:17:58;94190.63;;;11.00;53.76
1472;BME280;963;42.644;23.336;2023-04-08T13:20:23;94186.06;;;11.26;52.89
1472;BME280;963;42.644;23.336;2023-04-08T13:22:51;94185.47;;;11.40;52.40
1472;BME280;963;42.644;23.336;2023-04-08T13:25:17;94177.22;;;11.45;53.74
1472;BME280;963;42.644;23.336;2023-04-08T13:27:42;94184.00;;;11.13;53.00
1472;BME280;963;42.644;23.336;2023-04-08T13:30:08;94196.00;;;11.10;53.50
1472;BME280;963;42.644;23.336;2023-04-08T13:32:34;94209.00;;;11.26;52.96
1472;BME280;963;42.644;23.336;2023-04-08T13:34:59;94193.75;;;11.42;52.48
1472;BME280;963;42.644;23.336;2023-04-08T13:37:25;94200.22;;;11.48;52.63
1472;BME280;963;42.644;23.336;2023-04-08T13:39:51;94190.66;;;11.33;52.31
1472;BME280;963;42.644;23.336;2023-04-08T13:42:16;94197.28;;;11.20;52.78
1472;BME280;963;42.644;23.336;2023-04-08T13:44:42;94192.44;;;11.25;53.12
1472;BME280;963;42.644;23.336;2023-04-08T13:47:07;94200.16;;;11.41;53.20
1472;BME280;963;42.644;23.336;2023-04-08T13:49:32;94210.84;;;11.55;52.27